createdAt,value
2022-11-04T00:01:23.874Z,-1.56
2022-11-04T00:04:29.508Z,-1.20
2022-11-04T00:07:51.739Z,-0.67
2022-11-04T00:11:14.400Z,-0.81
2022-11-04T00:14:22.478Z,-0.19
2022-11-04T00:17:27.510Z,0.40
2022-11-04T00:20:50.329Z,1.18
2022-11-04T00:24:12.534Z,0.89
2022-11-04T00:27:36.599Z,1.17
2022-11-04T00:30:42.190Z,1.38
2022-11-04T00:33:46.636Z,1.80
2022-11-04T00:36:50.352Z,2.06
2022-11-04T00:39:54.710Z,1.90
2022-11-04T00:42:58.916Z,2.32
2022-11-04T00:46:03.070Z,2.31
2022-11-04T00:49:07.608Z,1.84
2022-11-04T00:52:11.680Z,2.05
2022-11-04T00:55:17.313Z,1.99
2022-11-04T00:58:21.470Z,3.02
2022-11-04T01:01:25.724Z,1.82
2022-11-04T01:04:29.961Z,2.91
2022-11-04T01:07:34.564Z,2.43
2022-11-04T01:10:45.478Z,2.34
2022-11-04T01:13:52.249Z,2.27
2022-11-04T01:16:56.181Z,2.35
2022-11-04T01:20:00.243Z,3.17
2022-11-04T01:23:04.195Z,1.80
2022-11-04T01:26:13.804Z,1.54
2022-11-04T01:29:18.187Z,1.84
2022-11-04T01:32:22.445Z,1.77
2022-11-04T01:35:26.246Z,1.83
2022-11-04T01:38:30.449Z,2.05
2022-11-04T01:41:34.989Z,2.37
2022-11-04T01:44:51.587Z,1.72
2022-11-04T01:48:05.121Z,1.33
2022-11-04T01:51:09.247Z,1.25
2022-11-04T01:54:13.876Z,1.65
2022-11-04T01:57:20.385Z,2.20
2022-11-04T02:00:24.993Z,1.81
2022-11-04T02:03:28.948Z,1.88
2022-11-04T02:06:33.690Z,2.31
2022-11-04T02:09:38.672Z,2.37
2022-11-04T02:12:51.773Z,1.44
2022-11-04T02:15:55.576Z,1.02
2022-11-04T02:18:59.579Z,1.84
2022-11-04T02:22:15.936Z,1.81
2022-11-04T02:25:48.042Z,1.58
2022-11-04T02:29:13.545Z,0.88
2022-11-04T02:32:17.488Z,0.98
2022-11-04T02:35:24.640Z,0.94
2022-11-04T02:38:31.558Z,1.21
2022-11-04T02:41:38.600Z,1.49
2022-11-04T02:44:48.998Z,1.24
2022-11-04T02:48:02.878Z,0.95
2022-11-04T02:51:25.518Z,1.40
2022-11-04T02:54:34.833Z,1.53
2022-11-04T02:57:41.346Z,1.15
2022-11-04T03:00:46.441Z,1.29
2022-11-04T03:03:53.269Z,1.39
2022-11-04T03:06:58.756Z,1.42
2022-11-04T03:10:05.672Z,1.25
2022-11-04T03:13:30.113Z,1.16
2022-11-04T03:16:47.853Z,0.72
2022-11-04T03:19:57.398Z,0.99
2022-11-04T03:23:01.967Z,1.00
2022-11-04T03:26:32.453Z,1.01
2022-11-04T03:29:47.810Z,0.63
2022-11-04T03:33:10.467Z,1.23
2022-11-04T03:36:14.881Z,1.31
2022-11-04T03:39:18.824Z,1.57
2022-11-04T03:42:24.659Z,1.48
2022-11-04T03:45:29.373Z,1.27
2022-11-04T03:48:33.358Z,1.12
2022-11-04T03:51:40.895Z,1.02
2022-11-04T03:54:45.475Z,1.05
2022-11-04T03:57:53.150Z,0.64
2022-11-04T04:01:02.104Z,0.62
2022-11-04T04:04:13.523Z,1.27
2022-11-04T04:07:20.239Z,0.86
2022-11-04T04:10:42.918Z,0.56
2022-11-04T04:13:51.893Z,0.66
2022-11-04T04:16:57.846Z,0.65
2022-11-04T04:20:10.580Z,0.68
2022-11-04T04:23:39.700Z,0.96
2022-11-04T04:27:02.839Z,1.43
2022-11-04T04:30:11.919Z,1.44
2022-11-04T04:33:18.126Z,0.66
2022-11-04T04:36:22.191Z,0.59
2022-11-04T04:39:47.167Z,0.64
2022-11-04T04:43:12.021Z,0.71
2022-11-04T04:46:16.433Z,0.71
2022-11-04T04:53:14.668Z,1.03
2022-11-04T04:56:18.994Z,1.02
2022-11-04T04:59:23.360Z,0.71
2022-11-04T05:02:27.674Z,0.45
2022-11-04T05:05:32.459Z,0.48
2022-11-04T05:08:36.744Z,0.83
2022-11-04T05:11:41.186Z,0.91
2022-11-04T05:14:45.775Z,1.10
2022-11-04T05:17:54.587Z,0.90
2022-11-04T05:20:58.992Z,0.64
2022-11-04T05:24:03.555Z,0.38
2022-11-04T05:27:07.780Z,0.57
2022-11-04T05:30:12.779Z,0.90
2022-11-04T05:33:17.130Z,0.88
2022-11-04T05:36:21.597Z,0.62
2022-11-04T05:39:26.037Z,0.75
2022-11-04T05:42:30.614Z,0.46
2022-11-04T05:45:34.917Z,0.30
2022-11-04T05:48:40.736Z,0.39
2022-11-04T05:51:45.537Z,0.30
2022-11-04T05:54:49.802Z,0.33
2022-11-04T05:57:54.892Z,0.53
2022-11-04T06:01:30.178Z,0.49
2022-11-04T06:04:35.145Z,0.58
2022-11-04T06:07:39.396Z,0.65
2022-11-04T06:10:44.982Z,0.20
2022-11-04T06:13:49.349Z,0.33
2022-11-04T06:16:53.913Z,0.81
2022-11-04T06:19:58.168Z,0.30
2022-11-04T06:23:02.604Z,0.22
2022-11-04T06:26:07.567Z,0.17
2022-11-04T06:29:12.424Z,0.17
2022-11-04T06:32:19.174Z,0.17
2022-11-04T06:35:23.800Z,0.18
2022-11-04T06:38:30.882Z,0.36
2022-11-04T06:41:35.421Z,0.20
2022-11-04T06:44:39.966Z,0.25
2022-11-04T06:47:44.500Z,0.24
2022-11-04T06:50:48.839Z,-0.44
2022-11-04T06:53:53.637Z,-0.07
2022-11-04T06:56:58.055Z,0.01
2022-11-04T07:00:02.701Z,-0.23
2022-11-04T07:03:07.849Z,-0.20
2022-11-04T07:06:13.370Z,-0.28
2022-11-04T07:09:18.094Z,-0.61
2022-11-04T07:12:24.448Z,-0.53
2022-11-04T07:15:28.995Z,-0.81
2022-11-04T07:18:33.315Z,-0.68
2022-11-04T07:21:37.695Z,-0.84
2022-11-04T07:24:42.187Z,-1.25
2022-11-04T07:27:46.872Z,-0.97
2022-11-04T07:30:51.137Z,-1.11
2022-11-04T07:33:57.114Z,-1.39
2022-11-04T07:37:02.060Z,-1.45
2022-11-04T07:40:09.716Z,-1.53
2022-11-04T07:43:14.499Z,-1.56
2022-11-04T07:46:20.076Z,-1.52
2022-11-04T07:49:24.833Z,-1.68
2022-11-04T07:52:29.563Z,-1.53
2022-11-04T07:55:36.772Z,-1.90
2022-11-04T07:58:44.946Z,-1.48
2022-11-04T08:01:49.956Z,-1.78
2022-11-04T08:04:54.323Z,-1.94
2022-11-04T08:08:00.106Z,-1.87
2022-11-04T08:11:14.284Z,-1.67
2022-11-04T08:14:21.169Z,-1.76
2022-11-04T08:17:25.254Z,-1.62
2022-11-04T08:20:29.983Z,-1.60
2022-11-04T08:23:36.357Z,-1.37
2022-11-04T08:26:40.841Z,-1.58
2022-11-04T08:29:45.362Z,-1.72
2022-11-04T08:32:49.816Z,-1.75
2022-11-04T08:35:56.536Z,-1.78
2022-11-04T08:39:07.382Z,-1.67
2022-11-04T08:42:14.542Z,-1.82
2022-11-04T08:45:19.092Z,-1.96
2022-11-04T08:48:25.770Z,-1.85
2022-11-04T08:51:31.960Z,-1.62
2022-11-04T08:54:37.150Z,-1.97
2022-11-04T08:57:41.941Z,-2.15
2022-11-04T09:00:46.360Z,-2.17
2022-11-04T09:03:51.665Z,-1.92
2022-11-04T09:06:57.098Z,-2.15
2022-11-04T09:10:02.909Z,-2.16
2022-11-04T09:13:08.818Z,-2.43
2022-11-04T09:16:15.110Z,-2.40
2022-11-04T09:19:19.676Z,-2.42
2022-11-04T09:22:23.938Z,-2.15
2022-11-04T09:25:28.710Z,-2.24
2022-11-04T09:28:33.141Z,-2.30
2022-11-04T09:31:38.643Z,-2.51
2022-11-04T09:34:43.284Z,-2.45
2022-11-04T09:37:47.968Z,-2.46
2022-11-04T09:40:52.861Z,-2.51
2022-11-04T09:44:14.200Z,-2.38
2022-11-04T09:47:21.910Z,-2.82
2022-11-04T09:50:32.234Z,-2.99
2022-11-04T09:53:48.837Z,-2.86
2022-11-04T09:56:57.431Z,-2.87
2022-11-04T10:00:01.995Z,-2.96
2022-11-04T10:03:16.269Z,-2.78
2022-11-04T10:06:44.946Z,-2.92
2022-11-04T10:10:02.239Z,-3.18
2022-11-04T10:13:20.766Z,-3.66
2022-11-04T10:16:32.446Z,-3.42
2022-11-04T10:19:47.791Z,-3.65
2022-11-04T10:22:59.674Z,-3.58
2022-11-04T10:26:20.392Z,-3.66
2022-11-04T10:29:33.020Z,-3.54
2022-11-04T10:32:47.025Z,-3.28
2022-11-04T10:36:07.271Z,-3.44
2022-11-04T10:39:28.334Z,-3.44
2022-11-04T10:42:34.544Z,-3.70
2022-11-04T10:45:50.698Z,-3.59
2022-11-04T10:49:06.841Z,-3.30
2022-11-04T10:52:11.578Z,-3.47
2022-11-04T10:55:30.857Z,-3.69
2022-11-04T10:58:46.169Z,-3.70
2022-11-04T11:01:56.074Z,-4.65
2022-11-04T11:05:17.180Z,-4.98
2022-11-04T11:08:34.381Z,-4.39
2022-11-04T11:11:41.028Z,-4.01
2022-11-04T11:14:52.568Z,-4.24
2022-11-04T11:18:18.605Z,-4.43
2022-11-04T11:21:26.230Z,-4.25
2022-11-04T11:24:35.602Z,-4.23
2022-11-04T11:27:40.059Z,-4.07
2022-11-04T11:30:48.010Z,-4.37
2022-11-04T11:34:00.705Z,-4.27
2022-11-04T11:37:06.463Z,-4.32
2022-11-04T11:40:26.241Z,-4.60
2022-11-04T11:43:33.732Z,-4.57
2022-11-04T11:46:39.257Z,-4.49
2022-11-04T11:49:43.759Z,-4.68
2022-11-04T11:52:49.724Z,-4.83
2022-11-04T11:56:16.037Z,-4.80
2022-11-04T12:03:19.414Z,-5.08
2022-11-04T12:06:29.235Z,-5.14
2022-11-04T12:09:39.764Z,-5.54
2022-11-04T12:12:47.594Z,-5.05
2022-11-04T12:16:11.413Z,-5.20
2022-11-04T12:19:27.056Z,-5.12
2022-11-04T12:23:14.910Z,-5.07
2022-11-04T12:26:39.068Z,-4.81
2022-11-04T12:30:01.606Z,-4.94
2022-11-04T12:33:28.101Z,-4.90
2022-11-04T12:36:55.018Z,-5.31
2022-11-04T12:40:05.258Z,-5.13
2022-11-04T12:43:18.242Z,-5.42
2022-11-04T12:46:34.348Z,-5.32
2022-11-04T12:49:55.028Z,-5.12
2022-11-04T12:54:28.154Z,-5.47
2022-11-04T12:57:53.833Z,-5.85
2022-11-04T13:01:16.424Z,-5.70
2022-11-04T13:04:30.313Z,-5.54
2022-11-04T13:07:54.281Z,-6.06
2022-11-04T13:11:23.499Z,-5.75
2022-11-04T13:14:43.037Z,-5.89
2022-11-04T13:17:51.888Z,-5.48
2022-11-04T13:21:07.415Z,-5.54
2022-11-04T13:24:32.532Z,-5.96
2022-11-04T13:27:41.141Z,-5.92
2022-11-04T13:30:56.934Z,-6.18
2022-11-04T13:34:23.201Z,-5.96
2022-11-04T13:37:33.278Z,-5.66
2022-11-04T13:40:59.105Z,-6.09
2022-11-04T13:44:14.780Z,-6.14
2022-11-04T13:47:37.634Z,-6.19
2022-11-04T13:50:42.570Z,-6.12
2022-11-04T13:53:50.513Z,-5.90
2022-11-04T13:57:17.281Z,-6.36
2022-11-04T14:00:27.843Z,-6.53
2022-11-04T14:03:38.408Z,-6.31
2022-11-04T14:07:09.267Z,-6.09
2022-11-04T14:10:46.444Z,-5.96
2022-11-04T14:14:03.798Z,-6.27
2022-11-04T14:17:36.157Z,-6.73
2022-11-04T14:21:10.163Z,-6.70
2022-11-04T14:24:16.575Z,-6.73
2022-11-04T14:27:39.613Z,-6.37
2022-11-04T14:30:54.775Z,-6.79
2022-11-04T14:33:59.399Z,-6.39
2022-11-04T14:37:17.024Z,-6.56
2022-11-04T14:40:30.378Z,-6.46
2022-11-04T14:43:36.844Z,-6.48
2022-11-04T14:46:51.023Z,-6.25
2022-11-04T14:50:01.176Z,-6.57
2022-11-04T14:53:07.510Z,-6.42
2022-11-04T14:56:24.192Z,-6.61
2022-11-04T14:59:29.818Z,-6.60
2022-11-04T15:02:36.418Z,-6.76
2022-11-04T15:05:50.636Z,-6.84
2022-11-04T15:08:56.779Z,-6.68
2022-11-04T15:12:39.020Z,-6.57
2022-11-04T15:15:46.174Z,-6.35
2022-11-04T15:18:52.885Z,-6.79
2022-11-04T15:21:57.501Z,-6.71
2022-11-04T15:25:06.693Z,-6.63
2022-11-04T15:28:24.136Z,-6.79
2022-11-04T15:31:32.773Z,-6.92
2022-11-04T15:34:37.953Z,-6.77
2022-11-04T15:37:44.792Z,-6.55
2022-11-04T15:40:51.669Z,-6.58
2022-11-04T15:43:56.303Z,-6.58
2022-11-04T15:47:03.729Z,-6.72
2022-11-04T15:50:26.158Z,-6.81
2022-11-04T15:53:30.788Z,-6.70
2022-11-04T15:56:43.619Z,-6.90
2022-11-04T16:00:02.974Z,-6.80
2022-11-04T16:03:21.398Z,-7.09
2022-11-04T16:06:45.061Z,-7.18
2022-11-04T16:09:56.956Z,-7.00
2022-11-04T16:13:22.216Z,-7.02
2022-11-04T16:16:28.970Z,-6.75
2022-11-04T16:19:33.490Z,-6.87
2022-11-04T16:22:44.038Z,-6.98
2022-11-04T16:25:49.353Z,-7.12
2022-11-04T16:28:59.085Z,-6.96
2022-11-04T16:32:27.418Z,-6.99
2022-11-04T16:35:32.680Z,-6.76
2022-11-04T16:38:37.019Z,-6.70
2022-11-04T16:41:42.617Z,-7.05
2022-11-04T16:44:56.818Z,-7.31
2022-11-04T16:48:01.543Z,-7.03
2022-11-04T16:51:07.461Z,-7.23
2022-11-04T16:54:13.215Z,-7.26
2022-11-04T16:57:18.258Z,-7.68
2022-11-04T17:00:25.619Z,-7.28
2022-11-04T17:03:29.854Z,-7.22
2022-11-04T17:06:35.752Z,-7.19
2022-11-04T17:09:40.614Z,-7.23
2022-11-04T17:12:45.147Z,-7.12
2022-11-04T17:15:49.590Z,-7.38
2022-11-04T17:18:53.768Z,-7.13
2022-11-04T17:21:59.644Z,-7.39
2022-11-04T17:25:04.111Z,-7.31
2022-11-04T17:28:09.733Z,-7.26
2022-11-04T17:31:20.477Z,-6.98
2022-11-04T17:34:26.694Z,-6.99
2022-11-04T17:37:31.077Z,-6.95
2022-11-04T17:40:55.453Z,-7.19
2022-11-04T17:44:02.964Z,-7.51
2022-11-04T17:47:07.512Z,-7.22
2022-11-04T17:50:11.726Z,-6.90
2022-11-04T17:53:16.510Z,-6.62
2022-11-04T17:56:23.352Z,-6.46
2022-11-04T17:59:31.101Z,-6.50
2022-11-04T18:02:38.631Z,-6.30
2022-11-04T18:05:43.021Z,-6.71
2022-11-04T18:08:47.739Z,-6.44
2022-11-04T18:12:10.440Z,-6.16
2022-11-04T18:15:17.965Z,-6.03
2022-11-04T18:18:22.391Z,-6.16
2022-11-04T18:21:27.577Z,-6.32
2022-11-04T18:24:32.192Z,-6.77
2022-11-04T18:27:36.922Z,-6.78
2022-11-04T18:30:41.985Z,-6.76
2022-11-04T18:33:47.351Z,-6.83
2022-11-04T18:36:51.601Z,-6.88
2022-11-04T18:39:56.096Z,-7.10
2022-11-04T18:43:07.573Z,-6.90
2022-11-04T18:46:15.712Z,-6.71
2022-11-04T18:49:21.730Z,-6.68
2022-11-04T18:52:28.816Z,-7.12
2022-11-04T18:55:34.548Z,-7.14
2022-11-04T18:58:39.475Z,-7.16
2022-11-04T19:01:46.612Z,-7.10
2022-11-04T19:04:52.552Z,-7.25
2022-11-04T19:07:57.916Z,-6.98
2022-11-04T19:11:10.407Z,-7.22
2022-11-04T19:14:20.406Z,-7.24
2022-11-04T19:17:24.630Z,-7.44
2022-11-04T19:20:29.247Z,-7.34
2022-11-04T19:23:35.141Z,-7.47
2022-11-04T19:26:38.979Z,-7.58
2022-11-04T19:29:43.423Z,-7.07
2022-11-04T19:32:47.579Z,-6.68
2022-11-04T19:35:54.082Z,-6.76
2022-11-04T19:38:58.568Z,-6.56
2022-11-04T19:42:22.080Z,-6.17
2022-11-04T19:45:27.141Z,-6.59
2022-11-04T19:48:32.490Z,-6.74
2022-11-04T19:51:37.479Z,-6.28
2022-11-04T19:54:41.744Z,-6.41
2022-11-04T19:57:46.291Z,-6.00
2022-11-04T20:00:51.867Z,-5.95
2022-11-04T20:03:57.034Z,-5.99
2022-11-04T20:07:02.043Z,-6.09
2022-11-04T20:10:07.022Z,-5.93
2022-11-04T20:13:39.641Z,-5.63
2022-11-04T20:16:44.255Z,-5.49
2022-11-04T20:19:52.644Z,-5.44
2022-11-04T20:22:56.969Z,-5.68
2022-11-04T20:26:31.663Z,-5.72
2022-11-04T20:29:35.862Z,-5.72
2022-11-04T20:32:40.438Z,-5.40
2022-11-04T20:35:44.655Z,-5.39
2022-11-04T20:38:49.379Z,-5.17
2022-11-04T20:41:54.687Z,-5.28
2022-11-04T20:44:59.256Z,-5.26
2022-11-04T20:48:03.458Z,-5.38
2022-11-04T20:51:14.664Z,-5.48
2022-11-04T20:54:21.766Z,-5.61
2022-11-04T20:57:25.912Z,-5.69
2022-11-04T21:00:32.126Z,-5.77
2022-11-04T21:03:36.743Z,-5.53
2022-11-04T21:06:41.938Z,-5.28
2022-11-04T21:09:46.475Z,-5.11
2022-11-04T21:12:53.187Z,-5.32
2022-11-04T21:15:59.238Z,-5.31
2022-11-04T21:19:04.666Z,-5.60
2022-11-04T21:22:08.961Z,-5.74
2022-11-04T21:25:13.361Z,-5.38
2022-11-04T21:28:17.700Z,-5.33
2022-11-04T21:31:22.737Z,-5.36
2022-11-04T21:34:28.322Z,-5.18
2022-11-04T21:37:36.085Z,-4.81
2022-11-04T21:40:41.930Z,-4.49
2022-11-04T21:43:46.158Z,-4.37
2022-11-04T21:46:52.020Z,-4.41
2022-11-04T21:49:57.088Z,-4.44
2022-11-04T21:53:01.375Z,-4.67
2022-11-04T21:56:13.071Z,-4.58
2022-11-04T21:59:18.667Z,-4.55
2022-11-04T22:02:23.392Z,-4.62
2022-11-04T22:05:27.756Z,-4.61
2022-11-04T22:08:32.841Z,-4.15
2022-11-04T22:11:39.872Z,-3.82
2022-11-04T22:14:44.573Z,-3.74
2022-11-04T22:17:48.870Z,-3.72
2022-11-04T22:20:53.918Z,-3.91
2022-11-04T22:23:59.084Z,-3.55
2022-11-04T22:27:03.912Z,-3.72
2022-11-04T22:30:09.364Z,-3.56
2022-11-04T22:33:13.741Z,-3.38
2022-11-04T22:36:18.177Z,-3.54
2022-11-04T22:39:22.913Z,-3.52
2022-11-04T22:42:27.257Z,-3.46
2022-11-04T22:45:31.551Z,-3.73
2022-11-04T22:48:37.327Z,-3.48
2022-11-04T22:51:41.644Z,-3.31
2022-11-04T22:54:46.083Z,-3.35
2022-11-04T22:57:50.585Z,-3.19
2022-11-04T23:00:57.488Z,-3.07
2022-11-04T23:04:02.068Z,-3.27
2022-11-04T23:07:06.571Z,-3.21
2022-11-04T23:10:29.588Z,-3.21
2022-11-04T23:13:52.805Z,-3.16
2022-11-04T23:17:15.687Z,-2.87
2022-11-04T23:20:21.943Z,-2.68
2022-11-04T23:23:45.352Z,-2.92
2022-11-04T23:26:49.815Z,-2.67
2022-11-04T23:30:19.982Z,-2.62
2022-11-04T23:33:44.228Z,-2.64
2022-11-04T23:37:07.539Z,-2.39
2022-11-04T23:40:12.605Z,-2.42
2022-11-04T23:43:16.892Z,-2.40
2022-11-04T23:46:43.151Z,-2.16
2022-11-04T23:50:06.822Z,-2.19
2022-11-04T23:53:32.048Z,-2.30
2022-11-04T23:56:54.993Z,-1.83
